createdAt,value
2022-10-11T00:00:09.028Z,74.50
2022-10-11T00:02:41.934Z,74.90
2022-10-11T00:05:14.811Z,74.83
2022-10-11T00:07:49.027Z,74.57
2022-10-11T00:10:22.409Z,74.63
2022-10-11T00:12:55.496Z,74.49
2022-10-11T00:15:28.495Z,74.41
2022-10-11T00:18:05.204Z,74.26
2022-10-11T00:20:38.389Z,74.37
2022-10-11T00:23:12.763Z,74.04
2022-10-11T00:25:45.560Z,74.33
2022-10-11T00:28:18.459Z,74.15
2022-10-11T00:30:51.272Z,73.84
2022-10-11T00:33:24.202Z,74.23
2022-10-11T00:35:57.166Z,74.13
2022-10-11T00:38:32.116Z,73.83
2022-10-11T00:41:05.085Z,73.92
2022-10-11T00:43:37.982Z,73.93
2022-10-11T00:46:30.272Z,73.58
2022-10-11T00:49:08.405Z,73.74
2022-10-11T00:51:47.004Z,73.57
2022-10-11T00:54:25.318Z,74.06
2022-10-11T00:57:03.195Z,73.97
2022-10-11T00:59:39.428Z,73.87
2022-10-11T01:02:14.342Z,74.11
2022-10-11T01:04:47.487Z,73.92
2022-10-11T01:07:21.540Z,74.10
2022-10-11T01:09:56.082Z,74.21
2022-10-11T01:12:31.929Z,74.23
2022-10-11T01:15:15.405Z,73.81
2022-10-11T01:17:57.174Z,73.58
2022-10-11T01:20:37.074Z,73.98
2022-10-11T01:23:44.910Z,73.71
2022-10-11T01:26:59.341Z,73.80
2022-10-11T01:29:47.493Z,73.70
2022-10-11T01:32:28.728Z,73.78
2022-10-11T01:35:10.114Z,74.10
2022-10-11T01:37:47.935Z,73.89
2022-10-11T01:40:25.992Z,73.86
2022-10-11T01:42:59.882Z,73.96
2022-10-11T01:45:34.870Z,74.01
2022-10-11T01:48:11.529Z,73.91
2022-10-11T01:50:47.165Z,73.93
2022-10-11T01:53:35.694Z,74.01
2022-10-11T01:56:22.900Z,74.08
2022-10-11T01:59:14.624Z,74.45
2022-10-11T02:01:56.449Z,74.37
2022-10-11T02:04:34.794Z,74.49
2022-10-11T02:07:12.511Z,74.34
2022-10-11T02:09:50.632Z,74.28
2022-10-11T02:12:33.378Z,74.07
2022-10-11T02:15:10.290Z,74.33
2022-10-11T02:17:49.040Z,74.07
2022-10-11T02:20:26.613Z,74.20
2022-10-11T02:23:04.495Z,74.03
2022-10-11T02:25:38.140Z,74.40
2022-10-11T02:28:17.830Z,74.30
2022-10-11T02:30:53.159Z,74.17
2022-10-11T02:33:32.612Z,74.10
2022-10-11T02:36:13.861Z,74.50
2022-10-11T02:38:52.223Z,74.53
2022-10-11T02:41:31.186Z,74.58
2022-10-11T02:44:08.284Z,74.64
2022-10-11T02:46:42.416Z,74.63
2022-10-11T02:49:16.633Z,74.79
2022-10-11T02:51:50.887Z,74.92
2022-10-11T02:54:24.251Z,74.64
2022-10-11T02:56:57.137Z,74.62
2022-10-11T02:59:30.019Z,74.62
2022-10-11T03:02:03.157Z,74.88
2022-10-11T03:04:36.035Z,74.84
2022-10-11T03:07:10.333Z,74.30
2022-10-11T03:09:43.455Z,74.64
2022-10-11T03:12:16.347Z,74.83
2022-10-11T03:14:49.182Z,74.43
2022-10-11T03:17:36.120Z,74.60
2022-10-11T03:20:10.462Z,74.42
2022-10-11T03:22:44.810Z,74.61
2022-10-11T03:25:17.957Z,74.68
2022-10-11T03:27:50.876Z,74.84
2022-10-11T03:30:23.737Z,74.77
2022-10-11T03:32:56.628Z,74.72
2022-10-11T03:35:29.409Z,74.70
2022-10-11T03:38:03.709Z,74.57
2022-10-11T03:40:36.565Z,74.80
2022-10-11T03:43:09.604Z,74.51
2022-10-11T03:45:43.489Z,74.70
2022-10-11T03:48:16.575Z,74.79
2022-10-11T03:50:50.297Z,74.75
2022-10-11T03:53:24.810Z,74.65
2022-10-11T03:55:58.394Z,74.72
2022-10-11T03:58:31.192Z,74.41
2022-10-11T04:01:04.080Z,74.65
2022-10-11T04:03:37.336Z,74.60
2022-10-11T04:06:10.222Z,74.19
2022-10-11T04:08:44.824Z,74.29
2022-10-11T04:11:17.642Z,74.11
2022-10-11T04:13:50.647Z,74.17
2022-10-11T04:16:23.696Z,74.54
2022-10-11T04:18:56.735Z,74.28
2022-10-11T04:21:29.551Z,74.38
2022-10-11T04:24:03.963Z,74.76
2022-10-11T04:26:36.814Z,74.57
2022-10-11T04:29:09.722Z,74.88
2022-10-11T04:31:42.593Z,74.69
2022-10-11T04:34:16.034Z,74.78
2022-10-11T04:36:50.035Z,74.92
2022-10-11T04:39:25.002Z,74.77
2022-10-11T04:41:57.937Z,75.16
2022-10-11T04:44:30.815Z,75.02
2022-10-11T04:47:03.754Z,75.17
2022-10-11T04:49:36.601Z,74.90
2022-10-11T04:52:09.521Z,74.78
2022-10-11T04:54:43.817Z,74.96
2022-10-11T04:57:16.795Z,74.78
2022-10-11T04:59:50.425Z,74.59
2022-10-11T05:02:23.477Z,74.98
2022-10-11T05:04:56.402Z,74.75
2022-10-11T05:07:29.227Z,74.82
2022-10-11T05:10:04.119Z,74.63
2022-10-11T05:12:36.987Z,74.89
2022-10-11T05:15:11.357Z,74.56
2022-10-11T05:17:44.192Z,74.89
2022-10-11T05:20:17.298Z,74.93
2022-10-11T05:22:50.398Z,74.83
2022-10-11T05:25:24.723Z,74.75
2022-10-11T05:27:57.617Z,74.81
2022-10-11T05:30:30.709Z,74.97
2022-10-11T05:33:03.746Z,74.78
2022-10-11T05:35:36.673Z,74.99
2022-10-11T05:38:09.893Z,74.87
2022-10-11T05:40:44.226Z,74.77
2022-10-11T05:43:17.225Z,74.40
2022-10-11T05:45:50.936Z,74.67
2022-10-11T05:48:24.102Z,74.72
2022-10-11T05:51:02.168Z,74.53
2022-10-11T05:53:35.360Z,74.52
2022-10-11T05:56:20.270Z,74.30
2022-10-11T05:58:55.708Z,74.55
2022-10-11T06:01:31.797Z,74.63
2022-10-11T06:04:05.075Z,74.59
2022-10-11T06:06:37.898Z,74.86
2022-10-11T06:09:10.756Z,75.17
2022-10-11T06:11:45.652Z,75.07
2022-10-11T06:14:19.208Z,75.19
2022-10-11T06:16:52.104Z,74.85
2022-10-11T06:19:25.031Z,75.14
2022-10-11T06:21:58.086Z,75.37
2022-10-11T06:24:31.213Z,75.38
2022-10-11T06:27:05.474Z,75.37
2022-10-11T06:29:38.321Z,75.37
2022-10-11T06:32:13.466Z,75.27
2022-10-11T06:34:46.340Z,75.29
2022-10-11T06:37:19.413Z,75.32
2022-10-11T06:39:52.191Z,75.38
2022-10-11T06:42:26.672Z,75.52
2022-10-11T06:44:59.495Z,75.59
2022-10-11T06:47:32.519Z,75.85
2022-10-11T06:50:06.596Z,75.06
2022-10-11T06:52:39.426Z,75.15
2022-10-11T06:55:12.256Z,75.12
2022-10-11T06:57:46.528Z,74.90
2022-10-11T07:00:19.415Z,75.41
2022-10-11T07:03:08.489Z,75.11
2022-10-11T07:05:41.496Z,74.85
2022-10-11T07:08:14.397Z,75.05
2022-10-11T07:10:47.283Z,75.09
2022-10-11T07:13:21.701Z,74.90
2022-10-11T07:15:54.503Z,74.94
2022-10-11T07:18:27.564Z,74.54
2022-10-11T07:21:03.298Z,74.45
2022-10-11T07:23:36.545Z,74.91
2022-10-11T07:26:11.278Z,74.51
2022-10-11T07:28:45.985Z,74.77
2022-10-11T07:31:21.721Z,74.76
2022-10-11T07:33:54.771Z,75.09
2022-10-11T07:36:27.603Z,75.08
2022-10-11T07:39:00.675Z,75.12
2022-10-11T07:41:33.940Z,75.40
2022-10-11T07:44:08.410Z,75.21
2022-10-11T07:46:41.250Z,74.91
2022-10-11T07:49:14.025Z,74.87
2022-10-11T07:51:46.857Z,74.80
2022-10-11T07:54:19.707Z,74.74
2022-10-11T07:56:52.495Z,74.77
2022-10-11T07:59:27.195Z,74.72
2022-10-11T08:02:00.368Z,74.43
2022-10-11T08:04:33.272Z,74.60
2022-10-11T08:07:06.765Z,74.35
2022-10-11T08:09:39.663Z,74.06
2022-10-11T08:12:13.030Z,74.15
2022-10-11T08:14:47.472Z,74.04
2022-10-11T08:17:20.287Z,73.82
2022-10-11T08:19:53.403Z,73.49
2022-10-11T08:22:26.212Z,73.34
2022-10-11T08:24:59.451Z,72.87
2022-10-11T08:27:32.323Z,72.19
2022-10-11T08:30:08.708Z,71.40
2022-10-11T08:32:41.560Z,71.44
2022-10-11T08:35:14.777Z,71.13
2022-10-11T08:37:48.006Z,70.52
2022-10-11T08:40:22.893Z,69.70
2022-10-11T08:43:03.743Z,69.39
2022-10-11T08:45:44.594Z,69.02
2022-10-11T08:48:19.621Z,69.47
2022-10-11T08:50:55.520Z,69.09
2022-10-11T08:53:42.273Z,68.36
2022-10-11T08:56:16.874Z,67.49
2022-10-11T08:58:55.667Z,67.55
2022-10-11T09:01:30.711Z,67.40
2022-10-11T09:04:06.146Z,67.06
2022-10-11T09:06:51.726Z,66.93
2022-10-11T09:09:38.853Z,66.33
2022-10-11T09:12:19.912Z,66.55
2022-10-11T09:15:04.078Z,66.44
2022-10-11T09:17:50.718Z,66.41
2022-10-11T09:20:45.273Z,67.17
2022-10-11T09:23:35.759Z,65.51
2022-10-11T09:26:15.992Z,65.68
2022-10-11T09:29:00.948Z,66.04
2022-10-11T09:31:34.488Z,66.26
2022-10-11T09:34:14.763Z,66.01
2022-10-11T09:36:55.662Z,66.38
2022-10-11T09:39:32.752Z,66.78
2022-10-11T09:42:08.102Z,67.21
2022-10-11T09:44:46.719Z,67.37
2022-10-11T09:47:23.131Z,67.42
2022-10-11T09:50:00.342Z,67.71
2022-10-11T09:52:35.317Z,67.85
2022-10-11T09:55:08.896Z,67.54
2022-10-11T09:57:42.048Z,67.37
2022-10-11T10:00:22.512Z,67.16
2022-10-11T10:02:57.187Z,66.87
2022-10-11T10:05:32.780Z,66.65
2022-10-11T10:08:24.849Z,67.16
2022-10-11T10:11:03.695Z,66.34
2022-10-11T10:13:44.451Z,66.09
2022-10-11T10:16:23.562Z,66.68
2022-10-11T10:18:59.437Z,66.89
2022-10-11T10:21:36.863Z,66.39
2022-10-11T10:24:19.139Z,66.21
2022-10-11T10:27:18.027Z,65.87
2022-10-11T10:30:16.034Z,66.36
2022-10-11T10:32:58.514Z,64.95
2022-10-11T10:35:38.473Z,65.57
2022-10-11T10:38:21.727Z,64.85
2022-10-11T10:40:59.249Z,65.33
2022-10-11T10:43:36.163Z,65.49
2022-10-11T10:46:35.305Z,65.27
2022-10-11T10:52:32.062Z,63.73
2022-10-11T10:55:24.601Z,65.01
2022-10-11T10:58:07.215Z,63.79
2022-10-11T11:00:45.293Z,64.17
2022-10-11T11:03:25.217Z,64.19
2022-10-11T11:06:04.547Z,64.34
2022-10-11T11:08:53.005Z,64.41
2022-10-11T11:11:47.404Z,64.65
2022-10-11T11:14:35.045Z,64.07
2022-10-11T11:17:22.956Z,64.50
2022-10-11T11:20:09.878Z,64.24
2022-10-11T11:22:50.714Z,63.75
2022-10-11T11:25:39.291Z,64.62
2022-10-11T11:28:30.712Z,65.40
2022-10-11T11:31:12.687Z,64.14
2022-10-11T11:33:56.635Z,64.22
2022-10-11T11:36:38.621Z,64.89
2022-10-11T11:39:17.437Z,63.72
2022-10-11T11:41:57.482Z,63.69
2022-10-11T11:44:35.649Z,63.51
2022-10-11T11:47:17.812Z,63.57
2022-10-11T11:49:59.995Z,63.67
2022-10-11T11:52:39.310Z,63.90
2022-10-11T11:55:20.078Z,63.72
2022-10-11T11:58:06.807Z,63.85
2022-10-11T12:00:50.323Z,63.69
2022-10-11T12:03:27.917Z,63.62
2022-10-11T12:06:21.066Z,64.49
2022-10-11T12:09:03.656Z,63.69
2022-10-11T12:11:50.816Z,64.15
2022-10-11T12:14:35.749Z,63.45
2022-10-11T12:17:22.878Z,64.47
2022-10-11T12:20:17.540Z,64.86
2022-10-11T12:23:00.420Z,63.55
2022-10-11T12:25:47.771Z,64.16
2022-10-11T12:29:11.114Z,64.81
2022-10-11T12:31:46.252Z,62.99
2022-10-11T12:34:34.615Z,62.47
2022-10-11T12:37:44.961Z,62.62
2022-10-11T12:40:42.088Z,62.42
2022-10-11T12:43:58.150Z,63.26
2022-10-11T12:46:40.353Z,63.30
2022-10-11T12:49:49.108Z,63.77
2022-10-11T12:52:33.584Z,63.38
2022-10-11T12:55:46.425Z,64.27
2022-10-11T12:58:30.549Z,63.83
2022-10-11T13:01:23.132Z,63.55
2022-10-11T13:04:04.088Z,62.89
2022-10-11T13:06:46.446Z,63.00
2022-10-11T13:09:28.787Z,63.15
2022-10-11T13:12:06.579Z,63.98
2022-10-11T13:14:45.111Z,64.00
2022-10-11T13:17:22.273Z,63.57
2022-10-11T13:20:02.497Z,63.19
2022-10-11T13:22:40.499Z,62.83
2022-10-11T13:25:18.288Z,63.00
2022-10-11T13:27:53.836Z,62.86
2022-10-11T13:30:29.894Z,62.68
2022-10-11T13:33:07.250Z,62.20
2022-10-11T13:35:40.370Z,62.73
2022-10-11T13:38:23.948Z,62.69
2022-10-11T13:40:58.223Z,62.61
2022-10-11T13:43:32.435Z,61.92
2022-10-11T13:46:06.646Z,61.67
2022-10-11T13:48:41.147Z,61.81
2022-10-11T13:51:18.927Z,61.32
2022-10-11T13:54:02.296Z,62.12
2022-10-11T13:56:39.701Z,60.88
2022-10-11T13:59:19.021Z,60.25
2022-10-11T14:01:59.331Z,60.26
2022-10-11T14:04:41.957Z,60.60
2022-10-11T14:07:24.919Z,60.73
2022-10-11T14:09:59.674Z,61.11
2022-10-11T14:12:38.178Z,61.29
2022-10-11T14:15:25.974Z,61.63
2022-10-11T14:18:00.312Z,61.47
2022-10-11T14:20:39.144Z,61.42
2022-10-11T14:23:13.533Z,61.78
2022-10-11T14:25:47.762Z,61.87
2022-10-11T14:28:20.624Z,62.21
2022-10-11T14:30:53.574Z,61.94
2022-10-11T14:33:26.709Z,61.66
2022-10-11T14:35:59.750Z,61.53
2022-10-11T14:38:32.743Z,61.65
2022-10-11T14:41:07.344Z,61.13
2022-10-11T14:43:40.168Z,61.13
2022-10-11T14:46:22.526Z,60.61
2022-10-11T14:48:56.941Z,60.62
2022-10-11T14:51:35.634Z,60.39
2022-10-11T14:54:08.959Z,61.13
2022-10-11T14:56:44.303Z,60.70
2022-10-11T14:59:19.739Z,60.83
2022-10-11T15:01:54.119Z,60.95
2022-10-11T15:04:28.091Z,61.39
2022-10-11T15:07:01.059Z,61.35
2022-10-11T15:09:34.130Z,61.22
2022-10-11T15:12:08.883Z,61.23
2022-10-11T15:14:41.799Z,61.24
2022-10-11T15:17:14.628Z,61.35
2022-10-11T15:19:48.004Z,61.61
2022-10-11T15:22:20.985Z,61.69
2022-10-11T15:24:53.877Z,61.76
2022-10-11T15:27:28.860Z,61.63
2022-10-11T15:30:02.071Z,62.18
2022-10-11T15:32:38.113Z,62.16
2022-10-11T15:35:11.368Z,62.44
2022-10-11T15:37:44.942Z,62.41
2022-10-11T15:40:21.928Z,62.55
2022-10-11T15:42:56.690Z,62.56
2022-10-11T15:45:30.052Z,62.87
2022-10-11T15:48:03.251Z,63.19
2022-10-11T15:50:38.203Z,63.28
2022-10-11T15:53:13.237Z,63.55
2022-10-11T15:55:47.545Z,63.54
2022-10-11T15:58:24.249Z,63.59
2022-10-11T16:00:58.531Z,63.71
2022-10-11T16:03:31.852Z,63.70
2022-10-11T16:06:05.926Z,63.86
2022-10-11T16:08:39.434Z,64.09
2022-10-11T16:11:13.489Z,64.19
2022-10-11T16:13:47.860Z,64.53
2022-10-11T16:16:20.702Z,64.39
2022-10-11T16:18:54.297Z,64.89
2022-10-11T16:21:27.209Z,64.85
2022-10-11T16:24:00.504Z,64.82
2022-10-11T16:26:33.375Z,65.13
2022-10-11T16:29:07.800Z,65.25
2022-10-11T16:31:40.692Z,65.51
2022-10-11T16:34:13.671Z,65.74
2022-10-11T16:36:46.590Z,65.86
2022-10-11T16:39:20.289Z,66.05
2022-10-11T16:41:53.186Z,66.14
2022-10-11T16:44:28.013Z,66.35
2022-10-11T16:47:01.466Z,66.62
2022-10-11T16:49:35.297Z,66.68
2022-10-11T16:52:10.717Z,66.91
2022-10-11T16:54:45.711Z,66.97
2022-10-11T16:57:20.078Z,67.29
2022-10-11T16:59:54.886Z,67.38
2022-10-11T17:02:32.366Z,67.63
2022-10-11T17:05:06.159Z,67.78
2022-10-11T17:07:39.078Z,68.04
2022-10-11T17:10:11.927Z,68.17
2022-10-11T17:12:50.014Z,68.32
2022-10-11T17:15:26.186Z,68.42
2022-10-11T17:17:59.244Z,68.54
2022-10-11T17:20:32.094Z,68.73
2022-10-11T17:23:04.975Z,68.96
2022-10-11T17:25:42.439Z,69.22
2022-10-11T17:28:15.517Z,69.47
2022-10-11T17:30:55.794Z,69.36
2022-10-11T17:33:29.525Z,69.36
2022-10-11T17:36:03.309Z,69.84
2022-10-11T17:38:36.472Z,70.02
2022-10-11T17:41:09.869Z,70.01
2022-10-11T17:43:43.284Z,70.36
2022-10-11T17:46:19.267Z,70.36
2022-10-11T17:48:54.960Z,70.30
2022-10-11T17:51:28.422Z,70.65
2022-10-11T17:54:01.371Z,70.44
2022-10-11T17:56:37.857Z,70.53
2022-10-11T17:59:18.040Z,70.27
2022-10-11T18:01:52.361Z,70.56
2022-10-11T18:04:27.197Z,70.66
2022-10-11T18:07:00.088Z,70.69
2022-10-11T18:09:34.907Z,71.14
2022-10-11T18:12:08.208Z,70.84
2022-10-11T18:14:41.341Z,71.15
2022-10-11T18:17:15.729Z,71.44
2022-10-11T18:19:48.667Z,71.37
2022-10-11T18:22:21.574Z,71.52
2022-10-11T18:24:54.454Z,71.89
2022-10-11T18:27:27.398Z,71.84
2022-10-11T18:30:00.335Z,72.08
2022-10-11T18:32:34.999Z,72.20
2022-10-11T18:35:08.624Z,72.42
2022-10-11T18:37:41.937Z,72.06
2022-10-11T18:40:14.812Z,72.22
2022-10-11T18:42:48.099Z,72.50
2022-10-11T18:45:20.977Z,72.42
2022-10-11T18:47:55.420Z,72.82
2022-10-11T18:50:28.249Z,72.74
2022-10-11T18:53:01.278Z,72.44
2022-10-11T18:55:34.133Z,72.62
2022-10-11T18:58:07.384Z,72.85
2022-10-11T19:00:41.492Z,72.86
2022-10-11T19:03:16.488Z,72.67
2022-10-11T19:05:49.369Z,72.66
2022-10-11T19:08:22.237Z,72.68
2022-10-11T19:10:55.067Z,72.68
2022-10-11T19:13:27.984Z,73.01
2022-10-11T19:16:09.315Z,73.14
2022-10-11T19:18:44.724Z,73.23
2022-10-11T19:21:18.257Z,73.13
2022-10-11T19:23:51.915Z,73.25
2022-10-11T19:26:28.912Z,73.51
2022-10-11T19:29:03.917Z,73.58
2022-10-11T19:31:42.060Z,73.23
2022-10-11T19:34:17.042Z,73.25
2022-10-11T19:36:52.778Z,73.31
2022-10-11T19:39:26.187Z,73.59
2022-10-11T19:42:00.282Z,73.91
2022-10-11T19:44:37.122Z,74.09
2022-10-11T19:47:12.526Z,74.58
2022-10-11T19:49:46.823Z,74.74
2022-10-11T19:52:19.663Z,74.72
2022-10-11T19:54:52.666Z,74.53
2022-10-11T19:57:25.934Z,74.55
2022-10-11T19:59:58.933Z,74.39
2022-10-11T20:02:32.030Z,74.49
2022-10-11T20:05:07.453Z,74.25
2022-10-11T20:07:40.620Z,74.11
2022-10-11T20:10:13.485Z,73.79
2022-10-11T20:12:46.460Z,73.69
2022-10-11T20:15:19.305Z,73.51
2022-10-11T20:17:52.183Z,73.78
2022-10-11T20:20:27.033Z,73.50
2022-10-11T20:22:59.993Z,73.27
2022-10-11T20:25:33.039Z,73.53
2022-10-11T20:28:06.039Z,73.17
2022-10-11T20:30:42.962Z,73.38
2022-10-11T20:33:15.810Z,73.50
2022-10-11T20:35:59.558Z,73.40
2022-10-11T20:38:33.696Z,73.22
2022-10-11T20:41:07.713Z,73.36
2022-10-11T20:43:42.987Z,73.27
2022-10-11T20:46:17.880Z,73.68
2022-10-11T20:48:55.481Z,73.71
2022-10-11T20:51:34.003Z,73.70
2022-10-11T20:54:07.219Z,73.82
2022-10-11T20:56:40.959Z,73.88
2022-10-11T20:59:13.880Z,74.15
2022-10-11T21:01:46.803Z,74.20
2022-10-11T21:04:21.178Z,74.12
2022-10-11T21:06:55.594Z,74.35
2022-10-11T21:09:28.388Z,74.25
2022-10-11T21:12:02.091Z,74.21
2022-10-11T21:14:37.524Z,74.61
2022-10-11T21:17:11.590Z,74.61
2022-10-11T21:19:44.480Z,75.01
2022-10-11T21:22:18.759Z,75.18
2022-10-11T21:24:51.738Z,74.77
2022-10-11T21:27:25.092Z,74.84
2022-10-11T21:29:58.272Z,74.70
2022-10-11T21:32:31.184Z,74.54
2022-10-11T21:35:04.321Z,74.30
2022-10-11T21:37:38.735Z,74.21
2022-10-11T21:40:11.603Z,74.21
2022-10-11T21:42:44.624Z,74.05
2022-10-11T21:45:17.697Z,74.02
2022-10-11T21:47:50.568Z,74.25
2022-10-11T21:50:23.516Z,74.50
2022-10-11T21:52:57.833Z,74.73
2022-10-11T21:55:31.045Z,74.84
2022-10-11T21:58:04.058Z,75.22
2022-10-11T22:00:36.971Z,75.53
2022-10-11T22:03:10.035Z,75.95
2022-10-11T22:05:46.003Z,76.25
2022-10-11T22:08:20.402Z,76.29
2022-10-11T22:10:55.614Z,76.42
2022-10-11T22:13:30.856Z,76.76
2022-10-11T22:16:04.689Z,76.88
2022-10-11T22:18:38.169Z,77.01
2022-10-11T22:21:13.514Z,76.71
2022-10-11T22:23:50.140Z,76.69
2022-10-11T22:26:25.630Z,76.56
2022-10-11T22:28:59.111Z,76.61
2022-10-11T22:31:32.352Z,76.85
2022-10-11T22:34:05.293Z,76.40
2022-10-11T22:36:39.072Z,76.44
2022-10-11T22:39:13.487Z,75.97
2022-10-11T22:41:46.282Z,75.96
2022-10-11T22:44:19.137Z,76.17
2022-10-11T22:46:52.007Z,75.95
2022-10-11T22:49:25.192Z,75.83
2022-10-11T22:51:58.081Z,75.84
2022-10-11T22:54:32.555Z,75.92
2022-10-11T22:57:05.459Z,75.68
2022-10-11T22:59:38.572Z,75.38
2022-10-11T23:02:11.547Z,75.65
2022-10-11T23:04:44.409Z,75.57
2022-10-11T23:07:17.299Z,75.55
2022-10-11T23:09:52.031Z,75.06
2022-10-11T23:12:24.936Z,75.35
2022-10-11T23:14:58.363Z,74.86
2022-10-11T23:17:31.382Z,75.07
2022-10-11T23:20:05.510Z,74.84
2022-10-11T23:22:38.359Z,75.43
2022-10-11T23:25:12.770Z,75.27
2022-10-11T23:27:45.808Z,75.25
2022-10-11T23:30:18.921Z,74.75
2022-10-11T23:32:51.771Z,74.71
2022-10-11T23:35:24.689Z,74.98
2022-10-11T23:37:57.747Z,74.52
2022-10-11T23:40:32.037Z,74.58
2022-10-11T23:43:04.893Z,74.47
2022-10-11T23:45:37.727Z,74.28
2022-10-11T23:48:10.650Z,74.62
2022-10-11T23:50:44.089Z,74.66
2022-10-11T23:53:16.946Z,74.25
2022-10-11T23:55:51.945Z,74.25
2022-10-11T23:58:24.909Z,74.00
